sensor_id;sensor_type;location;lat;lon;timestamp;P1;durP1;ratioP1;P2;durP2;ratioP2
77298;SDS011;66361;52.034;20.656;2023-04-21T00:01:10;13.98;;;10.13;;
77298;SDS011;66361;52.034;20.656;2023-04-21T00:05:13;13.60;;;9.50;;
77298;SDS011;66361;52.034;20.656;2023-04-21T00:09:16;13.23;;;10.27;;
77298;SDS011;66361;52.034;20.656;2023-04-21T00:13:21;15.07;;;10.15;;
77298;SDS011;66361;52.034;20.656;2023-04-21T00:17:25;13.77;;;10.25;;
77298;SDS011;66361;52.034;20.656;2023-04-21T00:21:28;14.80;;;10.07;;
77298;SDS011;66361;52.034;20.656;2023-04-21T00:25:33;15.75;;;10.57;;
77298;SDS011;66361;52.034;20.656;2023-04-21T00:29:38;12.82;;;10.27;;
77298;SDS011;66361;52.034;20.656;2023-04-21T00:33:44;13.65;;;9.88;;
77298;SDS011;66361;52.034;20.656;2023-04-21T00:37:48;12.85;;;9.73;;
77298;SDS011;66361;52.034;20.656;2023-04-21T00:41:51;15.30;;;9.70;;
77298;SDS011;66361;52.034;20.656;2023-04-21T00:45:55;13.35;;;9.18;;
77298;SDS011;66361;52.034;20.656;2023-04-21T00:49:58;11.95;;;10.10;;
77298;SDS011;66361;52.034;20.656;2023-04-21T00:54:02;12.18;;;9.60;;
77298;SDS011;66361;52.034;20.656;2023-04-21T00:58:06;13.65;;;9.82;;
77298;SDS011;66361;52.034;20.656;2023-04-21T01:02:10;11.70;;;9.20;;
77298;SDS011;66361;52.034;20.656;2023-04-21T01:06:14;12.15;;;8.93;;
77298;SDS011;66361;52.034;20.656;2023-04-21T01:10:17;11.32;;;9.27;;
77298;SDS011;66361;52.034;20.656;2023-04-21T01:14:20;15.10;;;10.38;;
77298;SDS011;66361;52.034;20.656;2023-04-21T01:18:25;11.75;;;9.15;;
77298;SDS011;66361;52.034;20.656;2023-04-21T01:22:29;12.63;;;9.13;;
77298;SDS011;66361;52.034;20.656;2023-04-21T01:26:33;16.80;;;10.77;;
77298;SDS011;66361;52.034;20.656;2023-04-21T01:30:36;14.80;;;10.93;;
77298;SDS011;66361;52.034;20.656;2023-04-21T01:34:40;15.70;;;10.85;;
77298;SDS011;66361;52.034;20.656;2023-04-21T01:38:46;15.88;;;11.18;;
77298;SDS011;66361;52.034;20.656;2023-04-21T01:42:49;15.07;;;11.38;;
77298;SDS011;66361;52.034;20.656;2023-04-21T01:46:52;17.65;;;12.10;;
77298;SDS011;66361;52.034;20.656;2023-04-21T01:50:58;16.33;;;12.07;;
77298;SDS011;66361;52.034;20.656;2023-04-21T01:55:02;14.60;;;10.82;;
77298;SDS011;66361;52.034;20.656;2023-04-21T01:59:05;16.50;;;11.02;;
77298;SDS011;66361;52.034;20.656;2023-04-21T02:03:09;14.32;;;10.63;;
77298;SDS011;66361;52.034;20.656;2023-04-21T02:07:12;16.35;;;10.43;;
77298;SDS011;66361;52.034;20.656;2023-04-21T02:11:17;14.07;;;11.93;;
77298;SDS011;66361;52.034;20.656;2023-04-21T02:15:20;17.50;;;11.43;;
77298;SDS011;66361;52.034;20.656;2023-04-21T02:19:28;15.57;;;10.50;;
77298;SDS011;66361;52.034;20.656;2023-04-21T02:23:31;15.23;;;10.35;;
77298;SDS011;66361;52.034;20.656;2023-04-21T02:27:36;12.90;;;9.90;;
77298;SDS011;66361;52.034;20.656;2023-04-21T02:31:39;17.60;;;11.43;;
77298;SDS011;66361;52.034;20.656;2023-04-21T02:36:01;16.15;;;10.90;;
77298;SDS011;66361;52.034;20.656;2023-04-21T02:40:07;16.45;;;11.48;;
77298;SDS011;66361;52.034;20.656;2023-04-21T02:44:13;14.73;;;10.85;;
77298;SDS011;66361;52.034;20.656;2023-04-21T02:48:16;18.33;;;11.25;;
77298;SDS011;66361;52.034;20.656;2023-04-21T02:52:23;19.33;;;12.45;;
77298;SDS011;66361;52.034;20.656;2023-04-21T02:56:26;18.55;;;12.20;;
77298;SDS011;66361;52.034;20.656;2023-04-21T03:00:30;15.55;;;11.75;;
77298;SDS011;66361;52.034;20.656;2023-04-21T03:04:34;17.50;;;12.02;;
77298;SDS011;66361;52.034;20.656;2023-04-21T03:08:37;20.35;;;12.95;;
77298;SDS011;66361;52.034;20.656;2023-04-21T03:12:41;18.67;;;12.80;;
77298;SDS011;66361;52.034;20.656;2023-04-21T03:16:45;19.70;;;12.38;;
77298;SDS011;66361;52.034;20.656;2023-04-21T03:20:49;16.90;;;12.15;;
77298;SDS011;66361;52.034;20.656;2023-04-21T03:24:52;15.98;;;12.00;;
77298;SDS011;66361;52.034;20.656;2023-04-21T03:28:56;21.42;;;12.90;;
77298;SDS011;66361;52.034;20.656;2023-04-21T03:37:06;19.60;;;12.60;;
77298;SDS011;66361;52.034;20.656;2023-04-21T03:41:10;18.58;;;13.02;;
77298;SDS011;66361;52.034;20.656;2023-04-21T03:45:12;21.15;;;13.80;;
77298;SDS011;66361;52.034;20.656;2023-04-21T03:49:17;18.35;;;12.13;;
77298;SDS011;66361;52.034;20.656;2023-04-21T03:53:20;18.15;;;13.52;;
77298;SDS011;66361;52.034;20.656;2023-04-21T03:57:23;20.17;;;13.27;;
77298;SDS011;66361;52.034;20.656;2023-04-21T04:01:27;22.05;;;15.90;;
77298;SDS011;66361;52.034;20.656;2023-04-21T04:05:31;20.80;;;13.73;;
77298;SDS011;66361;52.034;20.656;2023-04-21T04:09:34;17.67;;;12.43;;
77298;SDS011;66361;52.034;20.656;2023-04-21T04:13:37;22.58;;;13.63;;
77298;SDS011;66361;52.034;20.656;2023-04-21T04:17:40;19.75;;;13.80;;
77298;SDS011;66361;52.034;20.656;2023-04-21T04:21:45;16.75;;;12.88;;
77298;SDS011;66361;52.034;20.656;2023-04-21T04:25:49;14.88;;;11.13;;
77298;SDS011;66361;52.034;20.656;2023-04-21T04:29:52;18.23;;;11.05;;
77298;SDS011;66361;52.034;20.656;2023-04-21T04:33:58;15.00;;;11.02;;
77298;SDS011;66361;52.034;20.656;2023-04-21T04:38:02;15.32;;;11.38;;
77298;SDS011;66361;52.034;20.656;2023-04-21T04:42:07;13.63;;;11.48;;
77298;SDS011;66361;52.034;20.656;2023-04-21T04:46:11;11.27;;;9.60;;
77298;SDS011;66361;52.034;20.656;2023-04-21T04:50:14;14.57;;;11.70;;
77298;SDS011;66361;52.034;20.656;2023-04-21T04:58:22;13.25;;;10.35;;
77298;SDS011;66361;52.034;20.656;2023-04-21T05:02:24;13.95;;;10.52;;
77298;SDS011;66361;52.034;20.656;2023-04-21T05:06:30;13.60;;;10.57;;
77298;SDS011;66361;52.034;20.656;2023-04-21T05:10:34;14.27;;;10.00;;
77298;SDS011;66361;52.034;20.656;2023-04-21T05:14:37;12.48;;;8.60;;
77298;SDS011;66361;52.034;20.656;2023-04-21T05:18:40;14.40;;;9.68;;
77298;SDS011;66361;52.034;20.656;2023-04-21T05:22:42;11.40;;;8.73;;
77298;SDS011;66361;52.034;20.656;2023-04-21T05:26:51;11.43;;;8.82;;
77298;SDS011;66361;52.034;20.656;2023-04-21T05:30:54;10.10;;;8.00;;
77298;SDS011;66361;52.034;20.656;2023-04-21T05:34:57;9.85;;;7.18;;
77298;SDS011;66361;52.034;20.656;2023-04-21T05:39:00;10.02;;;7.03;;
77298;SDS011;66361;52.034;20.656;2023-04-21T05:43:04;7.80;;;7.00;;
77298;SDS011;66361;52.034;20.656;2023-04-21T05:47:07;9.95;;;6.90;;
77298;SDS011;66361;52.034;20.656;2023-04-21T05:51:10;9.05;;;6.35;;
77298;SDS011;66361;52.034;20.656;2023-04-21T05:55:15;10.32;;;6.90;;
77298;SDS011;66361;52.034;20.656;2023-04-21T05:59:20;8.60;;;6.25;;
77298;SDS011;66361;52.034;20.656;2023-04-21T06:03:23;9.88;;;6.38;;
77298;SDS011;66361;52.034;20.656;2023-04-21T06:07:26;10.60;;;6.38;;
77298;SDS011;66361;52.034;20.656;2023-04-21T06:11:29;9.68;;;6.28;;
77298;SDS011;66361;52.034;20.656;2023-04-21T06:15:35;7.82;;;6.07;;
77298;SDS011;66361;52.034;20.656;2023-04-21T06:19:38;8.32;;;6.18;;
77298;SDS011;66361;52.034;20.656;2023-04-21T06:23:42;9.10;;;5.85;;
77298;SDS011;66361;52.034;20.656;2023-04-21T06:27:45;7.35;;;5.93;;
77298;SDS011;66361;52.034;20.656;2023-04-21T06:31:49;7.53;;;5.32;;
77298;SDS011;66361;52.034;20.656;2023-04-21T06:35:52;7.53;;;5.07;;
77298;SDS011;66361;52.034;20.656;2023-04-21T06:39:56;8.40;;;5.03;;
77298;SDS011;66361;52.034;20.656;2023-04-21T06:43:59;7.30;;;5.22;;
77298;SDS011;66361;52.034;20.656;2023-04-21T06:48:06;10.82;;;4.60;;
77298;SDS011;66361;52.034;20.656;2023-04-21T06:52:10;6.32;;;4.32;;
77298;SDS011;66361;52.034;20.656;2023-04-21T06:56:15;7.32;;;4.30;;
77298;SDS011;66361;52.034;20.656;2023-04-21T07:00:18;6.13;;;4.35;;
77298;SDS011;66361;52.034;20.656;2023-04-21T07:04:31;5.20;;;4.20;;
77298;SDS011;66361;52.034;20.656;2023-04-21T07:08:36;6.50;;;4.60;;
77298;SDS011;66361;52.034;20.656;2023-04-21T07:12:41;6.25;;;4.07;;
77298;SDS011;66361;52.034;20.656;2023-04-21T07:16:43;6.30;;;4.20;;
77298;SDS011;66361;52.034;20.656;2023-04-21T07:20:47;7.15;;;4.53;;
77298;SDS011;66361;52.034;20.656;2023-04-21T07:24:50;6.50;;;3.78;;
77298;SDS011;66361;52.034;20.656;2023-04-21T07:28:53;5.93;;;3.60;;
77298;SDS011;66361;52.034;20.656;2023-04-21T07:32:58;4.93;;;3.38;;
77298;SDS011;66361;52.034;20.656;2023-04-21T07:41:10;6.78;;;3.50;;
77298;SDS011;66361;52.034;20.656;2023-04-21T07:45:14;6.90;;;3.28;;
77298;SDS011;66361;52.034;20.656;2023-04-21T07:49:19;5.00;;;3.45;;
77298;SDS011;66361;52.034;20.656;2023-04-21T07:53:24;4.43;;;3.70;;
77298;SDS011;66361;52.034;20.656;2023-04-21T07:57:27;7.78;;;3.42;;
77298;SDS011;66361;52.034;20.656;2023-04-21T08:01:33;5.28;;;3.67;;
77298;SDS011;66361;52.034;20.656;2023-04-21T08:05:36;5.95;;;3.35;;
77298;SDS011;66361;52.034;20.656;2023-04-21T08:09:43;5.53;;;3.63;;
77298;SDS011;66361;52.034;20.656;2023-04-21T08:13:48;8.35;;;4.38;;
77298;SDS011;66361;52.034;20.656;2023-04-21T08:17:51;5.75;;;3.63;;
77298;SDS011;66361;52.034;20.656;2023-04-21T08:21:55;7.10;;;3.70;;
77298;SDS011;66361;52.034;20.656;2023-04-21T08:26:01;4.50;;;3.20;;
77298;SDS011;66361;52.034;20.656;2023-04-21T08:30:08;5.07;;;3.33;;
77298;SDS011;66361;52.034;20.656;2023-04-21T08:34:14;6.68;;;3.22;;
77298;SDS011;66361;52.034;20.656;2023-04-21T08:38:24;4.65;;;3.58;;
77298;SDS011;66361;52.034;20.656;2023-04-21T08:42:28;4.40;;;3.38;;
77298;SDS011;66361;52.034;20.656;2023-04-21T08:46:31;3.85;;;2.78;;
77298;SDS011;66361;52.034;20.656;2023-04-21T08:50:35;3.53;;;3.20;;
77298;SDS011;66361;52.034;20.656;2023-04-21T08:54:39;5.72;;;3.65;;
77298;SDS011;66361;52.034;20.656;2023-04-21T08:58:44;6.57;;;3.22;;
77298;SDS011;66361;52.034;20.656;2023-04-21T09:02:52;5.38;;;3.42;;
77298;SDS011;66361;52.034;20.656;2023-04-21T09:07:02;4.43;;;3.30;;
77298;SDS011;66361;52.034;20.656;2023-04-21T09:11:05;4.35;;;3.50;;
77298;SDS011;66361;52.034;20.656;2023-04-21T09:15:10;4.28;;;3.28;;
77298;SDS011;66361;52.034;20.656;2023-04-21T09:19:13;4.60;;;3.40;;
77298;SDS011;66361;52.034;20.656;2023-04-21T09:23:19;3.90;;;3.00;;
77298;SDS011;66361;52.034;20.656;2023-04-21T09:27:22;6.65;;;3.63;;
77298;SDS011;66361;52.034;20.656;2023-04-21T09:31:27;3.85;;;3.38;;
77298;SDS011;66361;52.034;20.656;2023-04-21T09:35:31;6.30;;;4.00;;
77298;SDS011;66361;52.034;20.656;2023-04-21T09:39:36;5.63;;;4.03;;
77298;SDS011;66361;52.034;20.656;2023-04-21T09:43:58;4.55;;;3.90;;
77298;SDS011;66361;52.034;20.656;2023-04-21T09:48:06;5.32;;;3.65;;
77298;SDS011;66361;52.034;20.656;2023-04-21T09:52:11;4.43;;;3.63;;
77298;SDS011;66361;52.034;20.656;2023-04-21T09:56:20;5.13;;;3.83;;
77298;SDS011;66361;52.034;20.656;2023-04-21T10:00:26;4.60;;;3.67;;
77298;SDS011;66361;52.034;20.656;2023-04-21T10:04:33;3.70;;;3.30;;
77298;SDS011;66361;52.034;20.656;2023-04-21T10:08:42;4.00;;;3.40;;
77298;SDS011;66361;52.034;20.656;2023-04-21T10:12:46;5.00;;;3.88;;
77298;SDS011;66361;52.034;20.656;2023-04-21T10:16:54;5.60;;;3.72;;
77298;SDS011;66361;52.034;20.656;2023-04-21T10:21:00;4.93;;;3.35;;
77298;SDS011;66361;52.034;20.656;2023-04-21T10:25:07;5.07;;;3.28;;
77298;SDS011;66361;52.034;20.656;2023-04-21T10:29:13;4.30;;;3.85;;
77298;SDS011;66361;52.034;20.656;2023-04-21T10:33:18;5.35;;;3.50;;
77298;SDS011;66361;52.034;20.656;2023-04-21T10:37:26;5.95;;;3.47;;
77298;SDS011;66361;52.034;20.656;2023-04-21T10:41:33;6.43;;;3.15;;
77298;SDS011;66361;52.034;20.656;2023-04-21T10:45:36;4.95;;;3.53;;
77298;SDS011;66361;52.034;20.656;2023-04-21T10:49:39;4.38;;;3.33;;
77298;SDS011;66361;52.034;20.656;2023-04-21T10:53:43;4.88;;;3.60;;
77298;SDS011;66361;52.034;20.656;2023-04-21T10:57:46;4.45;;;3.63;;
77298;SDS011;66361;52.034;20.656;2023-04-21T11:01:50;3.95;;;3.53;;
77298;SDS011;66361;52.034;20.656;2023-04-21T11:05:53;4.68;;;3.45;;
77298;SDS011;66361;52.034;20.656;2023-04-21T11:10:01;5.50;;;3.42;;
77298;SDS011;66361;52.034;20.656;2023-04-21T11:14:05;4.53;;;3.30;;
77298;SDS011;66361;52.034;20.656;2023-04-21T11:18:07;6.20;;;3.30;;
77298;SDS011;66361;52.034;20.656;2023-04-21T11:22:10;4.85;;;3.42;;
77298;SDS011;66361;52.034;20.656;2023-04-21T11:26:15;5.25;;;3.25;;
77298;SDS011;66361;52.034;20.656;2023-04-21T11:30:18;5.00;;;3.15;;
77298;SDS011;66361;52.034;20.656;2023-04-21T11:34:21;4.07;;;2.65;;
77298;SDS011;66361;52.034;20.656;2023-04-21T11:38:24;4.95;;;3.22;;
77298;SDS011;66361;52.034;20.656;2023-04-21T11:42:29;35.05;;;5.25;;
77298;SDS011;66361;52.034;20.656;2023-04-21T11:46:32;4.03;;;3.35;;
77298;SDS011;66361;52.034;20.656;2023-04-21T11:50:37;5.72;;;3.25;;
77298;SDS011;66361;52.034;20.656;2023-04-21T11:54:40;5.75;;;3.60;;
77298;SDS011;66361;52.034;20.656;2023-04-21T11:58:44;5.80;;;3.40;;
77298;SDS011;66361;52.034;20.656;2023-04-21T12:02:53;4.43;;;3.40;;
77298;SDS011;66361;52.034;20.656;2023-04-21T12:06:57;4.18;;;3.33;;
77298;SDS011;66361;52.034;20.656;2023-04-21T12:11:03;5.35;;;3.33;;
77298;SDS011;66361;52.034;20.656;2023-04-21T12:15:09;4.75;;;3.50;;
77298;SDS011;66361;52.034;20.656;2023-04-21T12:19:18;3.78;;;3.28;;
77298;SDS011;66361;52.034;20.656;2023-04-21T12:23:24;5.18;;;3.63;;
77298;SDS011;66361;52.034;20.656;2023-04-21T12:27:27;4.65;;;3.50;;
77298;SDS011;66361;52.034;20.656;2023-04-21T12:31:31;5.22;;;3.33;;
77298;SDS011;66361;52.034;20.656;2023-04-21T12:35:36;5.63;;;3.50;;
77298;SDS011;66361;52.034;20.656;2023-04-21T12:39:39;3.72;;;3.10;;
77298;SDS011;66361;52.034;20.656;2023-04-21T12:43:43;3.35;;;3.05;;
77298;SDS011;66361;52.034;20.656;2023-04-21T13:14:28;7.85;;;3.30;;
77298;SDS011;66361;52.034;20.656;2023-04-21T13:18:32;3.97;;;3.30;;
77298;SDS011;66361;52.034;20.656;2023-04-21T13:22:36;6.63;;;3.03;;
77298;SDS011;66361;52.034;20.656;2023-04-21T13:26:39;4.05;;;3.33;;
77298;SDS011;66361;52.034;20.656;2023-04-21T13:30:46;5.38;;;3.28;;
77298;SDS011;66361;52.034;20.656;2023-04-21T13:34:49;5.82;;;3.47;;
77298;SDS011;66361;52.034;20.656;2023-04-21T13:38:57;5.00;;;3.40;;
77298;SDS011;66361;52.034;20.656;2023-04-21T13:43:04;4.45;;;3.45;;
77298;SDS011;66361;52.034;20.656;2023-04-21T13:47:14;4.07;;;3.20;;
77298;SDS011;66361;52.034;20.656;2023-04-21T13:51:18;3.80;;;2.92;;
77298;SDS011;66361;52.034;20.656;2023-04-21T13:55:22;6.25;;;3.20;;
77298;SDS011;66361;52.034;20.656;2023-04-21T13:59:26;4.88;;;3.30;;
77298;SDS011;66361;52.034;20.656;2023-04-21T14:03:30;4.75;;;2.97;;
77298;SDS011;66361;52.034;20.656;2023-04-21T14:07:34;5.25;;;2.70;;
77298;SDS011;66361;52.034;20.656;2023-04-21T14:11:41;4.78;;;2.97;;
77298;SDS011;66361;52.034;20.656;2023-04-21T14:15:46;5.07;;;3.40;;
77298;SDS011;66361;52.034;20.656;2023-04-21T14:19:50;4.97;;;3.00;;
77298;SDS011;66361;52.034;20.656;2023-04-21T14:23:55;4.10;;;3.10;;
77298;SDS011;66361;52.034;20.656;2023-04-21T14:27:58;5.82;;;2.97;;
77298;SDS011;66361;52.034;20.656;2023-04-21T14:32:01;3.80;;;3.00;;
77298;SDS011;66361;52.034;20.656;2023-04-21T14:36:05;4.85;;;3.50;;
77298;SDS011;66361;52.034;20.656;2023-04-21T14:40:09;4.15;;;2.67;;
77298;SDS011;66361;52.034;20.656;2023-04-21T14:44:12;4.68;;;2.92;;
77298;SDS011;66361;52.034;20.656;2023-04-21T14:48:18;6.20;;;3.45;;
77298;SDS011;66361;52.034;20.656;2023-04-21T14:52:27;3.88;;;3.38;;
77298;SDS011;66361;52.034;20.656;2023-04-21T14:56:30;3.75;;;2.92;;
77298;SDS011;66361;52.034;20.656;2023-04-21T15:00:33;3.83;;;3.00;;
77298;SDS011;66361;52.034;20.656;2023-04-21T15:04:38;5.72;;;3.10;;
77298;SDS011;66361;52.034;20.656;2023-04-21T15:08:43;5.15;;;3.17;;
77298;SDS011;66361;52.034;20.656;2023-04-21T15:12:46;5.88;;;3.00;;
77298;SDS011;66361;52.034;20.656;2023-04-21T15:16:51;4.63;;;3.13;;
77298;SDS011;66361;52.034;20.656;2023-04-21T15:20:54;4.00;;;2.88;;
77298;SDS011;66361;52.034;20.656;2023-04-21T15:24:58;5.10;;;3.38;;
77298;SDS011;66361;52.034;20.656;2023-04-21T15:29:03;4.32;;;2.83;;
77298;SDS011;66361;52.034;20.656;2023-04-21T15:33:06;3.92;;;3.00;;
77298;SDS011;66361;52.034;20.656;2023-04-21T15:37:09;4.68;;;2.70;;
77298;SDS011;66361;52.034;20.656;2023-04-21T15:41:13;4.28;;;3.10;;
77298;SDS011;66361;52.034;20.656;2023-04-21T15:45:17;3.85;;;2.50;;
77298;SDS011;66361;52.034;20.656;2023-04-21T15:49:20;3.88;;;2.70;;
77298;SDS011;66361;52.034;20.656;2023-04-21T15:53:26;4.93;;;3.17;;
77298;SDS011;66361;52.034;20.656;2023-04-21T15:57:30;4.22;;;3.50;;
77298;SDS011;66361;52.034;20.656;2023-04-21T16:01:34;3.80;;;3.00;;
77298;SDS011;66361;52.034;20.656;2023-04-21T16:05:39;4.70;;;2.60;;
77298;SDS011;66361;52.034;20.656;2023-04-21T16:09:43;4.85;;;2.97;;
77298;SDS011;66361;52.034;20.656;2023-04-21T16:13:47;3.85;;;2.90;;
77298;SDS011;66361;52.034;20.656;2023-04-21T16:17:51;5.18;;;3.97;;
77298;SDS011;66361;52.034;20.656;2023-04-21T16:21:54;6.25;;;4.45;;
77298;SDS011;66361;52.034;20.656;2023-04-21T16:25:57;4.88;;;3.55;;
77298;SDS011;66361;52.034;20.656;2023-04-21T16:30:04;5.40;;;3.83;;
77298;SDS011;66361;52.034;20.656;2023-04-21T16:34:08;5.90;;;3.30;;
77298;SDS011;66361;52.034;20.656;2023-04-21T16:38:13;5.68;;;3.45;;
77298;SDS011;66361;52.034;20.656;2023-04-21T16:42:17;5.78;;;3.30;;
77298;SDS011;66361;52.034;20.656;2023-04-21T16:46:21;6.55;;;3.80;;
77298;SDS011;66361;52.034;20.656;2023-04-21T16:50:25;5.03;;;3.28;;
77298;SDS011;66361;52.034;20.656;2023-04-21T16:54:30;4.90;;;3.15;;
77298;SDS011;66361;52.034;20.656;2023-04-21T16:58:34;4.22;;;3.08;;
77298;SDS011;66361;52.034;20.656;2023-04-21T17:02:39;6.20;;;3.28;;
77298;SDS011;66361;52.034;20.656;2023-04-21T17:06:42;6.40;;;3.10;;
77298;SDS011;66361;52.034;20.656;2023-04-21T17:10:45;5.90;;;3.00;;
77298;SDS011;66361;52.034;20.656;2023-04-21T17:14:50;5.57;;;3.03;;
77298;SDS011;66361;52.034;20.656;2023-04-21T17:18:56;5.93;;;3.42;;
77298;SDS011;66361;52.034;20.656;2023-04-21T17:22:59;8.88;;;3.20;;
77298;SDS011;66361;52.034;20.656;2023-04-21T17:27:01;4.25;;;3.33;;
77298;SDS011;66361;52.034;20.656;2023-04-21T17:31:05;3.88;;;3.47;;
77298;SDS011;66361;52.034;20.656;2023-04-21T17:35:23;7.00;;;3.28;;
77298;SDS011;66361;52.034;20.656;2023-04-21T17:39:26;8.23;;;3.55;;
77298;SDS011;66361;52.034;20.656;2023-04-21T17:43:29;5.28;;;3.33;;
77298;SDS011;66361;52.034;20.656;2023-04-21T17:47:32;5.20;;;3.35;;
77298;SDS011;66361;52.034;20.656;2023-04-21T17:51:37;6.22;;;3.33;;
77298;SDS011;66361;52.034;20.656;2023-04-21T17:55:41;4.57;;;3.35;;
77298;SDS011;66361;52.034;20.656;2023-04-21T17:59:44;4.75;;;3.53;;
77298;SDS011;66361;52.034;20.656;2023-04-21T18:03:47;6.45;;;4.00;;
77298;SDS011;66361;52.034;20.656;2023-04-21T18:07:51;6.13;;;3.55;;
77298;SDS011;66361;52.034;20.656;2023-04-21T18:11:54;5.55;;;4.03;;
77298;SDS011;66361;52.034;20.656;2023-04-21T18:15:58;6.38;;;3.88;;
77298;SDS011;66361;52.034;20.656;2023-04-21T18:20:02;6.03;;;4.53;;
77298;SDS011;66361;52.034;20.656;2023-04-21T18:24:08;8.70;;;4.22;;
77298;SDS011;66361;52.034;20.656;2023-04-21T18:28:15;6.57;;;3.78;;
77298;SDS011;66361;52.034;20.656;2023-04-21T18:32:19;7.25;;;4.40;;
77298;SDS011;66361;52.034;20.656;2023-04-21T18:36:22;11.68;;;5.57;;
77298;SDS011;66361;52.034;20.656;2023-04-21T18:40:27;9.35;;;6.32;;
77298;SDS011;66361;52.034;20.656;2023-04-21T18:44:30;12.43;;;6.93;;
77298;SDS011;66361;52.034;20.656;2023-04-21T18:52:35;8.82;;;5.68;;
77298;SDS011;66361;52.034;20.656;2023-04-21T18:56:41;8.55;;;5.95;;
77298;SDS011;66361;52.034;20.656;2023-04-21T19:00:45;9.30;;;5.53;;
77298;SDS011;66361;52.034;20.656;2023-04-21T19:04:51;8.13;;;6.00;;
77298;SDS011;66361;52.034;20.656;2023-04-21T19:08:54;9.95;;;5.68;;
77298;SDS011;66361;52.034;20.656;2023-04-21T19:12:59;10.13;;;6.55;;
77298;SDS011;66361;52.034;20.656;2023-04-21T19:17:03;8.90;;;6.22;;
77298;SDS011;66361;52.034;20.656;2023-04-21T19:21:05;10.13;;;7.32;;
77298;SDS011;66361;52.034;20.656;2023-04-21T19:25:13;10.18;;;6.75;;
77298;SDS011;66361;52.034;20.656;2023-04-21T19:29:18;14.98;;;9.98;;
77298;SDS011;66361;52.034;20.656;2023-04-21T19:33:23;13.55;;;10.38;;
77298;SDS011;66361;52.034;20.656;2023-04-21T19:37:26;11.68;;;9.20;;
77298;SDS011;66361;52.034;20.656;2023-04-21T19:45:33;13.07;;;7.70;;
77298;SDS011;66361;52.034;20.656;2023-04-21T19:49:37;11.68;;;7.85;;
77298;SDS011;66361;52.034;20.656;2023-04-21T19:53:40;12.75;;;7.78;;
77298;SDS011;66361;52.034;20.656;2023-04-21T19:57:43;11.77;;;6.72;;
77298;SDS011;66361;52.034;20.656;2023-04-21T20:01:48;8.38;;;6.35;;
77298;SDS011;66361;52.034;20.656;2023-04-21T20:05:51;20.27;;;9.18;;
77298;SDS011;66361;52.034;20.656;2023-04-21T20:09:54;15.32;;;7.82;;
77298;SDS011;66361;52.034;20.656;2023-04-21T20:18:03;13.80;;;9.23;;
77298;SDS011;66361;52.034;20.656;2023-04-21T20:22:07;19.73;;;10.15;;
77298;SDS011;66361;52.034;20.656;2023-04-21T20:30:13;13.02;;;7.88;;
77298;SDS011;66361;52.034;20.656;2023-04-21T20:34:18;13.10;;;8.68;;
77298;SDS011;66361;52.034;20.656;2023-04-21T20:38:21;16.63;;;8.70;;
77298;SDS011;66361;52.034;20.656;2023-04-21T20:42:25;14.27;;;8.73;;
77298;SDS011;66361;52.034;20.656;2023-04-21T20:46:28;13.13;;;8.48;;
77298;SDS011;66361;52.034;20.656;2023-04-21T20:50:33;14.93;;;7.97;;
77298;SDS011;66361;52.034;20.656;2023-04-21T20:54:47;19.05;;;8.55;;
77298;SDS011;66361;52.034;20.656;2023-04-21T21:02:54;14.75;;;8.73;;
77298;SDS011;66361;52.034;20.656;2023-04-21T21:06:58;14.05;;;8.80;;
77298;SDS011;66361;52.034;20.656;2023-04-21T21:11:02;13.00;;;8.50;;
77298;SDS011;66361;52.034;20.656;2023-04-21T21:15:06;14.73;;;8.32;;
77298;SDS011;66361;52.034;20.656;2023-04-21T21:19:10;16.27;;;9.93;;
77298;SDS011;66361;52.034;20.656;2023-04-21T21:23:17;17.30;;;9.25;;
77298;SDS011;66361;52.034;20.656;2023-04-21T21:27:20;17.73;;;9.25;;
77298;SDS011;66361;52.034;20.656;2023-04-21T21:31:23;15.07;;;9.65;;
77298;SDS011;66361;52.034;20.656;2023-04-21T21:35:27;16.52;;;10.02;;
77298;SDS011;66361;52.034;20.656;2023-04-21T21:39:32;18.60;;;9.98;;
77298;SDS011;66361;52.034;20.656;2023-04-21T21:43:36;15.50;;;9.45;;
77298;SDS011;66361;52.034;20.656;2023-04-21T21:47:47;18.95;;;10.45;;
77298;SDS011;66361;52.034;20.656;2023-04-21T21:51:51;18.08;;;10.20;;
77298;SDS011;66361;52.034;20.656;2023-04-21T21:56:01;18.25;;;9.80;;
77298;SDS011;66361;52.034;20.656;2023-04-21T22:00:06;17.05;;;10.07;;
77298;SDS011;66361;52.034;20.656;2023-04-21T22:04:13;17.63;;;9.75;;
77298;SDS011;66361;52.034;20.656;2023-04-21T22:08:22;18.58;;;10.38;;
77298;SDS011;66361;52.034;20.656;2023-04-21T22:12:26;18.98;;;9.75;;
77298;SDS011;66361;52.034;20.656;2023-04-21T22:16:30;17.60;;;9.63;;
77298;SDS011;66361;52.034;20.656;2023-04-21T22:20:34;17.55;;;10.75;;
77298;SDS011;66361;52.034;20.656;2023-04-21T22:24:37;20.83;;;11.43;;
77298;SDS011;66361;52.034;20.656;2023-04-21T22:28:42;21.58;;;11.85;;
77298;SDS011;66361;52.034;20.656;2023-04-21T22:32:47;20.98;;;12.13;;
77298;SDS011;66361;52.034;20.656;2023-04-21T22:36:50;25.60;;;13.27;;
77298;SDS011;66361;52.034;20.656;2023-04-21T22:40:53;29.50;;;13.13;;
77298;SDS011;66361;52.034;20.656;2023-04-21T22:49:01;28.25;;;13.10;;
77298;SDS011;66361;52.034;20.656;2023-04-21T22:57:07;24.73;;;11.80;;
77298;SDS011;66361;52.034;20.656;2023-04-21T23:01:14;23.42;;;11.57;;
77298;SDS011;66361;52.034;20.656;2023-04-21T23:05:17;23.83;;;13.15;;
77298;SDS011;66361;52.034;20.656;2023-04-21T23:09:20;23.63;;;13.02;;
77298;SDS011;66361;52.034;20.656;2023-04-21T23:13:23;31.67;;;14.70;;
77298;SDS011;66361;52.034;20.656;2023-04-21T23:17:28;25.98;;;13.05;;
77298;SDS011;66361;52.034;20.656;2023-04-21T23:21:31;20.40;;;14.07;;
77298;SDS011;66361;52.034;20.656;2023-04-21T23:25:34;22.92;;;12.55;;
77298;SDS011;66361;52.034;20.656;2023-04-21T23:29:37;20.27;;;12.38;;
77298;SDS011;66361;52.034;20.656;2023-04-21T23:33:42;19.98;;;12.75;;
77298;SDS011;66361;52.034;20.656;2023-04-21T23:37:47;20.58;;;12.05;;
77298;SDS011;66361;52.034;20.656;2023-04-21T23:41:50;26.92;;;15.80;;
77298;SDS011;66361;52.034;20.656;2023-04-21T23:45:53;20.90;;;11.43;;
77298;SDS011;66361;52.034;20.656;2023-04-21T23:49:57;22.42;;;12.75;;
77298;SDS011;66361;52.034;20.656;2023-04-21T23:54:00;25.00;;;12.32;;
77298;SDS011;66361;52.034;20.656;2023-04-21T23:58:03;22.58;;;13.07;;
